Time;durP1;ratioP1;P1;durP2;ratioP2;P2;SDS_P1;SDS_P2;PMS_P1;PMS_P2;Temp;Humidity;BMP_temperature;BMP_pressure;BME280_temperature;BME280_humidity;BME280_pressure;Samples;Min_cycle;Max_cycle;Signal;HPM_P1;HPM_P2
2022/09/18 00:02:04;;;;;;;9.88;3.22;;;8.40;99.90;;;;;;5053217;28;20021;-75
2022/09/18 00:04:30;;;;;;;7.15;2.70;;;8.40;99.90;;;;;;5053174;28;20031;-75
2022/09/18 00:06:56;;;;;;;8.18;2.50;;;8.40;99.90;;;;;;5052675;28;20056;-74
2022/09/18 00:09:22;;;;;;;8.68;2.88;;;8.40;99.90;;;;;;5053236;28;20017;-74
2022/09/18 00:11:49;;;;;;;8.68;2.97;;;8.40;99.90;;;;;;5035107;28;20028;-75
2022/09/18 00:14:22;;;;;;;10.55;3.15;;;8.40;99.90;;;;;;5035139;28;20028;-75
2022/09/18 00:16:48;;;;;;;5.03;2.20;;;8.40;99.90;;;;;;5035039;28;20107;-73
2022/09/18 00:19:15;;;;;;;9.77;3.05;;;8.40;99.90;;;;;;5053004;28;20037;-74
2022/09/18 00:21:43;;;;;;;6.07;1.90;;;8.40;99.90;;;;;;5052611;28;20078;-75
2022/09/18 00:24:09;;;;;;;8.93;2.72;;;8.40;99.90;;;;;;5052771;28;20044;-75
2022/09/18 00:26:35;;;;;;;7.68;2.30;;;8.50;99.90;;;;;;5052738;28;20048;-75
2022/09/18 00:29:01;;;;;;;7.25;2.17;;;8.50;99.90;;;;;;5034777;28;20410;-75
2022/09/18 00:31:34;;;;;;;8.35;3.40;;;8.50;99.90;;;;;;5034973;28;20032;-74
2022/09/18 00:34:02;;;;;;;6.53;2.03;;;8.50;99.90;;;;;;5052681;28;20565;-76
2022/09/18 00:36:28;;;;;;;10.70;2.60;;;8.50;99.90;;;;;;5052421;28;20151;-75
2022/09/18 00:38:55;;;;;;;7.13;2.13;;;8.50;99.90;;;;;;5052404;28;20486;-75
2022/09/18 00:41:26;;;;;;;8.02;2.38;;;8.50;99.90;;;;;;5052411;28;20505;-75
2022/09/18 00:44:30;;;;;;;9.05;2.30;;;8.60;99.90;;;;;;5049869;28;20029;-74
2022/09/18 00:47:27;;;;;;;8.45;2.28;;;8.50;99.90;;;;;;5047961;28;20501;-75
2022/09/18 00:50:12;;;;;;;7.93;2.53;;;8.60;99.90;;;;;;5018821;28;20448;-75
2022/09/18 00:52:53;;;;;;;5.28;2.17;;;8.60;99.90;;;;;;5051913;28;20056;-75
2022/09/18 00:55:25;;;;;;;7.72;2.55;;;8.60;99.90;;;;;;5052263;28;20028;-74
2022/09/18 00:57:54;;;;;;;7.38;2.33;;;8.70;99.90;;;;;;5026516;28;20115;-75
2022/09/18 01:00:21;;;;;;;8.63;2.50;;;8.70;99.90;;;;;;5052092;28;20036;-75
2022/09/18 01:02:47;;;;;;;6.53;2.38;;;8.70;99.90;;;;;;5052038;28;20112;-74
2022/09/18 01:05:17;;;;;;;10.20;2.53;;;8.60;99.90;;;;;;5052539;28;20025;-74
2022/09/18 01:08:03;;;;;;;9.80;2.83;;;8.60;99.90;;;;;;5051527;28;20422;-73
2022/09/18 01:10:52;;;;;;;9.15;2.72;;;8.70;99.90;;;;;;5052015;28;20028;-75
2022/09/18 01:13:41;;;;;;;9.32;2.83;;;8.70;99.90;;;;;;5051389;28;20060;-74
2022/09/18 01:16:11;;;;;;;9.23;2.92;;;8.70;99.90;;;;;;5029962;28;20025;-74
2022/09/18 01:19:19;;;;;;;6.85;2.58;;;8.60;99.90;;;;;;5051619;28;20658;-74
2022/09/18 01:22:14;;;;;;;7.47;2.50;;;8.60;99.90;;;;;;5033384;28;20060;-75
2022/09/18 01:25:05;;;;;;;8.45;3.50;;;8.60;99.90;;;;;;5033766;28;20036;-74
2022/09/18 01:28:10;;;;;;;9.55;3.13;;;8.60;99.90;;;;;;5000692;28;20499;-74
2022/09/18 01:30:40;;;;;;;8.35;2.90;;;8.60;99.90;;;;;;5051614;28;20549;-76
2022/09/18 01:33:22;;;;;;;7.35;2.90;;;8.60;99.90;;;;;;5033609;28;20025;-75
2022/09/18 01:35:52;;;;;;;11.38;3.33;;;8.60;99.90;;;;;;5048794;28;20025;-74
2022/09/18 01:38:26;;;;;;;7.38;3.55;;;8.60;99.90;;;;;;5051424;28;20039;-75
2022/09/18 01:41:04;;;;;;;9.15;3.08;;;8.60;99.90;;;;;;5032654;28;20021;-74
2022/09/18 01:43:31;;;;;;;5.95;2.92;;;8.70;99.90;;;;;;5051344;28;20025;-74
2022/09/18 01:46:03;;;;;;;12.85;3.55;;;8.70;99.90;;;;;;5051501;28;20044;-74
2022/09/18 01:48:36;;;;;;;8.95;3.40;;;8.70;99.90;;;;;;5051195;28;20021;-74
2022/09/18 01:51:10;;;;;;;7.70;3.25;;;8.70;99.90;;;;;;5051274;28;20402;-74
2022/09/18 01:53:40;;;;;;;9.95;3.55;;;8.70;99.90;;;;;;5051085;28;20037;-74
2022/09/18 01:56:24;;;;;;;8.50;2.92;;;8.80;99.90;;;;;;5051455;28;20481;-74
2022/09/18 01:58:53;;;;;;;12.93;3.83;;;8.80;99.90;;;;;;5025534;28;20025;-73
2022/09/18 02:01:21;;;;;;;6.55;3.20;;;8.70;99.90;;;;;;5051091;28;20017;-74
2022/09/18 02:03:57;;;;;;;8.25;3.70;;;8.80;99.90;;;;;;5033534;28;20033;-75
2022/09/18 02:06:25;;;;;;;;;;;8.80;99.90;;;;;;5034425;28;20026;-74
2022/09/18 02:08:56;;;;;;;8.70;3.65;;;8.90;99.90;;;;;;5051283;28;19909;-72
2022/09/18 02:11:22;;;;;;;6.93;3.22;;;8.90;99.90;;;;;;5052352;28;20078;-73
2022/09/18 02:13:54;;;;;;;8.40;3.28;;;9.00;99.90;;;;;;5055578;28;20575;-73
2022/09/18 02:16:26;;;;;;;6.18;3.08;;;8.90;99.90;;;;;;5037759;28;20430;-74
2022/09/18 02:18:56;;;;;;;6.68;3.55;;;8.90;99.90;;;;;;5073509;22;20036;-74
2022/09/18 02:21:26;;;;;;;6.05;3.15;;;8.90;99.90;;;;;;5095460;28;20128;-75
2022/09/18 02:23:58;;;;;;;7.55;3.58;;;9.00;99.90;;;;;;5088443;28;20035;-74
2022/09/18 02:26:25;;;;;;;7.40;3.25;;;9.00;99.90;;;;;;5082718;28;20023;-74
2022/09/18 02:28:53;;;;;;;5.35;3.60;;;9.00;99.90;;;;;;5088109;28;20638;-74
2022/09/18 02:31:19;;;;;;;6.35;2.92;;;9.00;99.90;;;;;;5075344;28;20461;-74
2022/09/18 02:33:45;;;;;;;6.18;3.10;;;9.00;99.90;;;;;;5056949;28;20048;-75
2022/09/18 02:36:28;;;;;;;7.05;3.75;;;9.00;99.90;;;;;;5075080;28;20060;-73
2022/09/18 02:38:54;;;;;;;6.30;3.20;;;9.00;99.90;;;;;;5074244;28;20025;-75
2022/09/18 02:41:27;;;;;;;8.65;3.92;;;9.00;99.90;;;;;;5074934;28;20469;-75
2022/09/18 02:43:59;;;;;;;7.32;3.33;;;9.00;99.90;;;;;;5056926;28;20073;-74
2022/09/18 02:46:40;;;;;;;5.35;3.05;;;9.00;99.90;;;;;;5075015;28;20028;-74
2022/09/18 02:49:43;;;;;;;6.85;3.50;;;9.00;99.90;;;;;;5074676;28;20024;-75
2022/09/18 02:52:22;;;;;;;6.57;3.17;;;9.00;99.90;;;;;;5023482;28;20442;-74
2022/09/18 02:54:52;;;;;;;5.53;3.50;;;9.00;99.90;;;;;;5056801;28;20040;-74
2022/09/18 02:57:41;;;;;;;6.88;2.97;;;9.10;99.90;;;;;;5074496;28;20028;-74
2022/09/18 03:00:11;;;;;;;6.68;3.22;;;9.00;99.90;;;;;;5073854;28;20040;-74
2022/09/18 03:02:37;;;;;;;8.07;3.30;;;9.10;99.90;;;;;;5075178;28;20378;-74
2022/09/18 03:05:03;;;;;;;4.97;2.83;;;9.10;99.90;;;;;;5074579;28;20017;-74
2022/09/18 03:07:29;;;;;;;6.78;2.95;;;9.10;99.90;;;;;;5074445;28;20032;-73
2022/09/18 03:09:54;;;;;;;6.00;3.17;;;9.10;99.90;;;;;;5056521;28;20024;-73
2022/09/18 03:12:20;;;;;;;5.60;3.38;;;9.10;99.90;;;;;;5074381;28;20100;-74
2022/09/18 03:14:45;;;;;;;6.07;3.20;;;9.10;99.90;;;;;;5074470;28;20473;-74
2022/09/18 03:17:11;;;;;;;10.50;3.35;;;9.00;99.90;;;;;;5074206;28;20659;-74
2022/09/18 03:19:37;;;;;;;5.35;3.50;;;9.00;99.90;;;;;;5056264;28;20448;-74
2022/09/18 03:22:03;;;;;;;10.40;3.88;;;9.00;99.90;;;;;;5074076;28;20063;-73
2022/09/18 03:24:28;;;;;;;6.20;3.60;;;9.00;99.90;;;;;;5073103;28;20016;-73
2022/09/18 03:26:54;;;;;;;8.82;3.80;;;9.00;99.90;;;;;;5056073;28;20494;-73
2022/09/18 03:29:20;;;;;;;8.57;3.53;;;9.00;99.90;;;;;;5056211;28;20107;-73
2022/09/18 03:31:45;;;;;;;9.73;3.97;;;9.00;99.90;;;;;;5074180;28;20478;-73
2022/09/18 03:34:11;;;;;;;9.18;3.45;;;9.00;99.90;;;;;;5074157;28;20096;-75
2022/09/18 03:36:36;;;;;;;7.65;3.63;;;9.00;99.90;;;;;;5074019;28;20516;-75
2022/09/18 03:39:03;;;;;;;9.00;3.75;;;9.00;99.90;;;;;;5055703;28;20501;-73
2022/09/18 03:41:28;;;;;;;8.82;3.67;;;9.00;99.90;;;;;;5073905;28;20051;-74
2022/09/18 03:43:54;;;;;;;5.63;3.40;;;9.00;99.90;;;;;;5073967;28;20398;-74
2022/09/18 03:46:23;;;;;;;7.28;3.72;;;9.10;99.90;;;;;;5073737;28;20394;-73
2022/09/18 03:48:51;;;;;;;7.35;3.20;;;9.10;99.90;;;;;;5073360;28;20012;-74
2022/09/18 03:51:21;;;;;;;6.55;3.13;;;9.10;99.90;;;;;;5073789;28;20040;-74
2022/09/18 03:53:47;;;;;;;8.45;3.75;;;9.10;99.90;;;;;;5073848;28;20031;-75
2022/09/18 03:56:14;;;;;;;8.18;3.60;;;9.10;99.90;;;;;;5073804;28;20024;-75
2022/09/18 03:58:40;;;;;;;11.52;3.70;;;9.10;99.90;;;;;;5073415;28;20108;-74
2022/09/18 04:01:06;;;;;;;6.80;3.63;;;9.10;99.90;;;;;;5073502;28;20474;-75
2022/09/18 04:03:33;;;;;;;8.80;3.33;;;9.10;99.90;;;;;;5073521;28;20071;-75
2022/09/18 04:05:59;;;;;;;7.47;3.40;;;9.10;99.90;;;;;;5073568;28;20035;-75
2022/09/18 04:08:25;;;;;;;12.00;3.78;;;9.10;99.90;;;;;;5073062;28;20059;-75
2022/09/18 04:10:51;;;;;;;7.00;3.17;;;9.20;99.90;;;;;;5073603;28;20028;-75
2022/09/18 04:13:16;;;;;;;8.40;3.35;;;9.10;99.90;;;;;;5072562;28;20020;-75
2022/09/18 04:15:44;;;;;;;8.40;3.67;;;9.20;99.90;;;;;;5055453;28;20025;-75
2022/09/18 04:18:10;;;;;;;5.93;3.35;;;9.10;99.90;;;;;;5072971;28;20471;-75
2022/09/18 04:20:35;;;;;;;5.50;3.15;;;9.20;99.90;;;;;;5073297;28;20033;-75
2022/09/18 04:23:01;;;;;;;7.68;3.20;;;9.20;99.90;;;;;;5074278;28;20518;-75
2022/09/18 04:25:26;;;;;;;5.30;3.15;;;9.10;99.90;;;;;;5073905;28;20048;-75
2022/09/18 04:27:52;;;;;;;6.63;2.72;;;9.10;99.90;;;;;;5072854;28;20111;-75
2022/09/18 04:30:18;;;;;;;7.47;3.20;;;9.10;99.90;;;;;;5072846;28;20027;-75
2022/09/18 04:32:44;;;;;;;6.20;3.10;;;9.10;99.90;;;;;;5055029;28;20036;-74
2022/09/18 04:35:10;;;;;;;7.30;3.30;;;9.00;99.90;;;;;;5072603;28;20025;-73
2022/09/18 04:37:36;;;;;;;5.95;2.97;;;9.10;99.90;;;;;;5072595;28;20021;-74
2022/09/18 04:40:03;;;;;;;5.85;3.10;;;9.10;99.90;;;;;;5072841;28;20389;-74
2022/09/18 04:42:29;;;;;;;5.32;2.97;;;9.10;99.90;;;;;;5072626;28;20021;-74
2022/09/18 04:44:55;;;;;;;8.32;3.75;;;9.00;99.90;;;;;;5072750;28;20033;-75
2022/09/18 04:47:20;;;;;;;7.80;4.05;;;9.10;99.90;;;;;;5054538;28;20021;-74
2022/09/18 04:49:46;;;;;;;8.48;3.67;;;9.10;99.90;;;;;;5072503;28;20063;-75
2022/09/18 04:52:12;;;;;;;5.15;3.05;;;9.10;99.90;;;;;;5072532;28;20078;-75
2022/09/18 04:54:37;;;;;;;6.38;3.10;;;9.00;99.90;;;;;;5072555;28;20066;-75
2022/09/18 04:57:03;;;;;;;6.40;3.40;;;9.10;99.90;;;;;;5072951;28;20028;-74
2022/09/18 04:59:28;;;;;;;5.82;2.88;;;9.10;99.90;;;;;;5072293;28;20028;-76
2022/09/18 05:01:54;;;;;;;6.40;2.60;;;9.10;99.90;;;;;;5072332;28;20034;-75
2022/09/18 05:04:19;;;;;;;6.30;2.90;;;9.10;99.90;;;;;;5072282;28;20028;-74
2022/09/18 05:06:45;;;;;;;6.07;3.05;;;9.10;99.90;;;;;;5072236;28;20389;-74
2022/09/18 05:09:10;;;;;;;6.50;3.00;;;9.20;99.90;;;;;;5072026;28;20031;-75
2022/09/18 05:11:36;;;;;;;5.68;2.90;;;9.10;99.90;;;;;;5072167;28;20048;-73
2022/09/18 05:14:01;;;;;;;9.23;3.30;;;9.20;99.90;;;;;;5072171;28;20082;-74
2022/09/18 05:16:27;;;;;;;8.13;2.58;;;9.20;99.90;;;;;;5072029;28;20395;-73
2022/09/18 05:18:53;;;;;;;4.68;2.95;;;9.20;99.90;;;;;;5071802;28;20398;-73
2022/09/18 05:21:19;;;;;;;10.23;2.85;;;9.20;99.90;;;;;;5071956;28;20024;-74
2022/09/18 05:23:45;;;;;;;6.43;2.75;;;9.30;99.90;;;;;;5072066;28;20166;-75
2022/09/18 05:26:12;;;;;;;7.18;2.75;;;9.30;99.90;;;;;;5054061;28;20112;-74
2022/09/18 05:28:37;;;;;;;5.72;2.72;;;9.40;99.90;;;;;;5071604;28;20024;-73
2022/09/18 05:31:03;;;;;;;12.93;6.60;;;9.40;99.90;;;;;;5071822;28;20100;-74
2022/09/18 05:33:29;;;;;;;4.78;2.72;;;9.40;99.90;;;;;;5071692;28;20024;-74
2022/09/18 05:35:56;;;;;;;4.75;3.15;;;9.40;99.90;;;;;;5071771;28;20025;-74
2022/09/18 05:38:23;;;;;;;7.40;2.80;;;9.40;99.90;;;;;;5071591;28;20417;-74
2022/09/18 05:40:49;;;;;;;6.38;2.40;;;9.40;99.90;;;;;;5053821;28;20482;-74
2022/09/18 05:43:15;;;;;;;4.80;2.45;;;9.40;99.90;;;;;;5071618;28;20068;-74
2022/09/18 05:45:41;;;;;;;13.75;3.50;;;9.40;99.90;;;;;;5053211;28;20016;-74
2022/09/18 05:48:07;;;;;;;5.72;2.65;;;9.50;99.90;;;;;;5053422;28;20482;-75
2022/09/18 05:50:35;;;;;;;5.90;2.28;;;9.50;99.90;;;;;;5053589;28;20546;-74
2022/09/18 05:53:10;;;;;;;4.18;2.47;;;9.50;99.90;;;;;;5072024;28;20033;-74
2022/09/18 05:55:36;;;;;;;5.33;2.77;;;9.60;99.90;;;;;;5074496;28;20093;-74
2022/09/18 05:58:03;;;;;;;6.63;3.00;;;9.60;99.90;;;;;;5071374;28;20263;-74
2022/09/18 06:00:31;;;;;;;6.28;2.80;;;9.70;99.90;;;;;;5053658;28;20033;-74
2022/09/18 06:02:59;;;;;;;5.68;2.58;;;9.60;99.90;;;;;;5071477;28;20028;-74
2022/09/18 06:05:25;;;;;;;5.43;2.67;;;9.60;99.90;;;;;;5071576;28;20103;-74
2022/09/18 06:07:51;;;;;;;4.35;2.75;;;9.60;99.90;;;;;;5071288;28;20043;-73
2022/09/18 06:10:18;;;;;;;4.55;2.90;;;9.50;99.90;;;;;;5071433;28;20468;-74
2022/09/18 06:12:44;;;;;;;7.18;3.53;;;9.40;99.90;;;;;;5071413;28;20067;-74
2022/09/18 06:15:11;;;;;;;9.75;2.97;;;9.40;99.90;;;;;;5071537;28;20047;-74
2022/09/18 06:17:38;;;;;;;9.82;3.17;;;9.30;99.90;;;;;;5071185;28;20024;-74
2022/09/18 06:20:06;;;;;;;8.73;2.95;;;9.30;99.90;;;;;;5071300;28;20127;-74
2022/09/18 06:22:32;;;;;;;7.55;3.38;;;9.30;99.90;;;;;;5071242;28;20078;-74
2022/09/18 06:24:57;;;;;;;3.15;2.75;;;9.30;99.90;;;;;;5071431;28;20081;-76
2022/09/18 06:27:23;;;;;;;6.63;3.05;;;9.30;99.90;;;;;;5071138;28;20028;-74
2022/09/18 06:29:49;;;;;;;6.63;3.05;;;9.30;99.90;;;;;;5053308;28;20024;-73
2022/09/18 06:32:14;;;;;;;7.15;3.03;;;9.30;99.90;;;;;;5071273;28;20032;-74
2022/09/18 06:34:40;;;;;;;7.93;4.18;;;9.30;99.90;;;;;;5070710;28;20025;-74
2022/09/18 06:37:09;;;;;;;5.63;2.90;;;9.40;99.90;;;;;;5071017;28;20032;-73
2022/09/18 06:39:34;;;;;;;5.25;2.88;;;9.30;99.90;;;;;;5071067;28;20047;-74
2022/09/18 06:42:00;;;;;;;6.55;3.20;;;9.30;99.90;;;;;;5071093;28;20478;-74
2022/09/18 06:44:25;;;;;;;6.07;3.17;;;9.30;99.90;;;;;;5071182;28;20513;-74
2022/09/18 06:46:51;;;;;;;5.53;3.10;;;9.30;99.90;;;;;;5052903;28;20016;-74
2022/09/18 06:49:16;;;;;;;7.85;3.10;;;9.20;99.90;;;;;;5071009;28;20655;-74
2022/09/18 06:51:44;;;;;;;7.53;2.95;;;9.30;99.90;;;;;;5070971;28;20039;-74
2022/09/18 06:54:11;;;;;;;4.63;3.72;;;9.30;99.90;;;;;;5071040;28;20059;-73
2022/09/18 06:56:37;;;;;;;6.15;3.10;;;9.30;99.90;;;;;;5070917;28;20032;-74
2022/09/18 06:59:03;;;;;;;4.15;2.88;;;9.20;99.90;;;;;;5074140;28;20567;-74
2022/09/18 07:01:28;;;;;;;8.55;5.20;;;9.30;99.90;;;;;;5074539;28;20031;-74
2022/09/18 07:03:54;;;;;;;9.95;5.35;;;9.30;99.90;;;;;;5074479;28;20021;-74
2022/09/18 07:06:19;;;;;;;9.35;6.28;;;9.30;99.90;;;;;;5074459;28;20028;-73
2022/09/18 07:08:45;;;;;;;6.05;3.00;;;9.40;99.90;;;;;;5074208;28;20033;-74
2022/09/18 07:11:10;;;;;;;3.78;2.78;;;9.30;99.90;;;;;;5056584;28;20429;-74
2022/09/18 07:13:36;;;;;;;5.97;2.90;;;9.40;99.90;;;;;;5074403;28;20545;-73
2022/09/18 07:16:02;;;;;;;6.25;2.65;;;9.40;99.90;;;;;;5074440;28;20062;-73
2022/09/18 07:18:28;;;;;;;3.78;2.53;;;9.40;99.90;;;;;;5073951;28;20478;-74
2022/09/18 07:20:54;;;;;;;4.28;2.50;;;9.40;99.90;;;;;;5074213;28;20029;-73
2022/09/18 07:23:19;;;;;;;3.78;2.35;;;9.40;99.90;;;;;;5076027;28;20043;-73
2022/09/18 07:25:45;;;;;;;5.63;2.47;;;9.50;99.90;;;;;;5057597;28;20024;-73
2022/09/18 07:28:11;;;;;;;6.75;2.80;;;9.50;99.90;;;;;;5074033;28;20020;-73
2022/09/18 07:30:38;;;;;;;4.97;2.38;;;9.50;99.90;;;;;;5074100;28;20025;-74
2022/09/18 07:33:05;;;;;;;4.57;2.08;;;9.50;99.90;;;;;;5074153;28;20056;-74
2022/09/18 07:35:31;;;;;;;5.65;2.58;;;9.50;99.90;;;;;;5074034;28;20052;-74
2022/09/18 07:38:01;;;;;;;5.13;2.50;;;9.50;99.90;;;;;;5073757;28;20028;-74
2022/09/18 07:40:27;;;;;;;4.13;2.58;;;9.50;99.90;;;;;;5073855;28;20107;-76
2022/09/18 07:42:58;;;;;;;4.75;2.80;;;9.50;99.90;;;;;;5051404;28;20115;-74
2022/09/18 07:45:24;;;;;;;5.45;2.55;;;9.50;99.90;;;;;;5073805;28;20017;-74
2022/09/18 07:47:49;;;;;;;4.35;2.63;;;9.60;99.90;;;;;;5073595;28;20023;-73
2022/09/18 07:50:15;;;;;;;3.58;2.78;;;9.40;99.90;;;;;;5073543;28;20025;-73
2022/09/18 07:52:51;;;;;;;5.43;2.70;;;9.50;99.90;;;;;;5073774;28;20067;-73
2022/09/18 07:55:19;;;;;;;5.28;2.80;;;9.50;99.90;;;;;;5073697;28;20441;-73
2022/09/18 07:57:46;;;;;;;5.28;2.50;;;9.50;99.90;;;;;;5073437;28;20028;-73
2022/09/18 08:00:12;;;;;;;5.97;3.17;;;9.50;99.90;;;;;;5056310;28;20016;-73
2022/09/18 08:02:38;;;;;;;5.65;3.00;;;9.60;99.90;;;;;;5073257;28;20429;-73
2022/09/18 08:05:04;;;;;;;4.40;2.90;;;9.60;99.90;;;;;;5073464;28;20028;-73
2022/09/18 08:07:30;;;;;;;3.92;2.50;;;9.60;99.90;;;;;;5073168;28;20032;-73
2022/09/18 08:09:55;;;;;;;3.35;2.50;;;9.70;99.90;;;;;;5072126;28;20466;-73
2022/09/18 08:12:21;;;;;;;3.80;2.70;;;9.70;99.90;;;;;;5073417;28;20101;-73
2022/09/18 08:14:46;;;;;;;5.20;2.70;;;9.70;99.90;;;;;;5055294;28;20025;-73
2022/09/18 08:17:12;;;;;;;3.67;2.40;;;9.80;99.90;;;;;;5072935;28;20040;-73
2022/09/18 08:19:38;;;;;;;4.13;2.63;;;9.70;99.90;;;;;;5086703;22;20043;-75
2022/09/18 08:22:04;;;;;;;3.00;2.15;;;9.80;99.90;;;;;;5093416;28;20465;-76
2022/09/18 08:24:30;;;;;;;4.45;2.10;;;9.80;99.90;;;;;;5075172;28;20464;-76
2022/09/18 08:27:02;;;;;;;3.80;2.85;;;9.70;99.90;;;;;;5092762;28;20027;-76
2022/09/18 08:29:30;;;;;;;5.57;2.65;;;9.60;99.90;;;;;;5093227;28;20024;-76
2022/09/18 08:31:56;;;;;;;4.68;2.92;;;9.60;99.90;;;;;;5092409;28;20028;-76
2022/09/18 08:34:22;;;;;;;3.65;2.40;;;9.70;99.90;;;;;;5093302;28;20036;-76
2022/09/18 08:36:47;;;;;;;5.57;2.70;;;9.70;99.90;;;;;;5092986;28;20055;-76
2022/09/18 08:39:13;;;;;;;8.70;3.33;;;9.70;99.90;;;;;;5093040;28;20032;-76
2022/09/18 08:42:12;;;;;;;6.20;3.45;;;9.60;99.90;;;;;;5093108;28;20032;-76
2022/09/18 08:44:48;;;;;;;4.55;3.08;;;9.50;99.90;;;;;;5083021;28;20031;-76
2022/09/18 08:47:21;;;;;;;5.15;3.33;;;9.50;99.90;;;;;;5091686;28;20028;-75
2022/09/18 08:50:01;;;;;;;3.90;3.03;;;9.50;99.90;;;;;;5092923;28;20107;-75
2022/09/18 08:52:31;;;;;;;6.75;3.28;;;9.60;99.90;;;;;;5080275;28;20099;-76
2022/09/18 08:55:00;;;;;;;5.20;3.95;;;9.70;99.90;;;;;;5095710;28;20020;-76
2022/09/18 08:57:38;;;;;;;4.40;3.70;;;9.80;99.90;;;;;;5092604;28;20077;-76
2022/09/18 09:00:18;;;;;;;5.15;3.63;;;9.80;99.90;;;;;;5092718;28;20396;-76
2022/09/18 09:02:53;;;;;;;8.07;5.05;;;9.70;99.90;;;;;;5092681;28;20060;-76
2022/09/18 09:05:30;;;;;;;4.13;3.72;;;9.70;99.90;;;;;;5079319;28;20046;-76
2022/09/18 09:08:22;;;;;;;4.60;3.40;;;9.80;99.90;;;;;;5087534;28;20020;-76
2022/09/18 09:11:15;;;;;;;7.18;3.10;;;9.80;99.90;;;;;;5092692;28;20020;-76
2022/09/18 09:13:57;;;;;;;5.45;3.28;;;9.80;99.90;;;;;;5081872;28;20024;-76
2022/09/18 09:17:01;;;;;;;10.60;3.75;;;9.80;99.90;;;;;;5092472;28;20486;-75
2022/09/18 09:19:37;;;;;;;4.90;3.40;;;9.80;99.90;;;;;;5043969;28;20079;-75
2022/09/18 09:22:19;;;;;;;3.67;3.00;;;9.80;99.90;;;;;;5092154;28;20032;-76
2022/09/18 09:25:05;;;;;;;5.68;2.90;;;9.90;99.90;;;;;;5079459;28;20501;-76
2022/09/18 09:27:43;;;;;;;6.10;2.85;;;9.80;99.90;;;;;;5092056;28;20038;-75
2022/09/18 09:30:16;;;;;;;5.55;3.20;;;9.80;99.90;;;;;;5092015;28;20485;-75
2022/09/18 09:33:01;;;;;;;5.38;3.15;;;9.80;99.90;;;;;;5092213;28;20027;-76
2022/09/18 09:35:34;;;;;;;4.03;2.65;;;9.80;99.90;;;;;;5092387;28;20024;-76
2022/09/18 09:38:05;;;;;;;4.75;2.83;;;9.90;99.90;;;;;;5092077;28;20024;-76
2022/09/18 09:40:48;;;;;;;5.20;2.72;;;10.00;99.90;;;;;;5092298;28;20070;-75
2022/09/18 09:43:19;;;;;;;4.90;2.53;;;10.00;99.90;;;;;;5092035;28;20354;-76
2022/09/18 09:45:50;;;;;;;6.95;2.47;;;10.00;99.90;;;;;;5092209;28;20016;-76
2022/09/18 09:48:34;;;;;;;4.95;2.40;;;10.00;99.90;;;;;;5091732;28;20099;-76
2022/09/18 09:51:10;;;;;;;4.72;2.15;;;10.00;99.90;;;;;;5091993;28;20016;-77
2022/09/18 09:53:35;;;;;;;3.22;2.30;;;10.10;99.90;;;;;;5092059;28;20473;-76
2022/09/18 09:56:20;;;;;;;3.30;2.42;;;10.20;99.90;;;;;;5091318;28;20027;-76
2022/09/18 09:59:04;;;;;;;4.70;2.42;;;10.10;99.90;;;;;;5077471;28;20024;-75
2022/09/18 10:01:47;;;;;;;5.25;2.88;;;10.10;99.90;;;;;;5090350;28;20092;-75
2022/09/18 10:04:31;;;;;;;2.83;2.15;;;10.00;99.90;;;;;;5089160;28;20028;-75
2022/09/18 10:07:18;;;;;;;3.45;2.17;;;10.10;99.90;;;;;;5077225;28;20024;-75
2022/09/18 10:10:03;;;;;;;4.95;2.25;;;10.00;99.90;;;;;;5090431;28;20638;-76
2022/09/18 10:12:53;;;;;;;5.10;2.22;;;10.10;99.90;;;;;;5091830;28;20388;-76
2022/09/18 10:15:59;;;;;;;5.75;2.75;;;10.20;99.90;;;;;;5081055;28;20492;-76
2022/09/18 10:18:30;;;;;;;4.13;1.90;;;10.20;99.90;;;;;;4997438;28;20049;-76
2022/09/18 10:21:10;;;;;;;4.57;2.17;;;10.30;99.90;;;;;;5076764;28;20074;-76
2022/09/18 10:23:45;;;;;;;3.38;2.10;;;10.50;99.90;;;;;;5090542;28;20032;-76
2022/09/18 10:26:24;;;;;;;3.53;1.88;;;10.60;99.90;;;;;;5091652;28;20039;-75
2022/09/18 10:28:50;;;;;;;2.45;1.80;;;10.80;99.90;;;;;;5091187;28;20032;-75
2022/09/18 10:31:16;;;;;;;3.50;1.55;;;10.70;99.90;;;;;;5091540;28;20028;-75
2022/09/18 10:33:50;;;;;;;2.20;1.30;;;10.70;99.90;;;;;;5094609;28;20099;-76
2022/09/18 10:36:31;;;;;;;5.00;1.55;;;10.60;99.90;;;;;;5095569;28;20024;-76
2022/09/18 10:38:58;;;;;;;1.75;1.40;;;10.70;99.90;;;;;;5095163;28;20023;-76
2022/09/18 10:41:34;;;;;;;3.35;1.33;;;10.80;99.90;;;;;;5095435;28;20028;-76
2022/09/18 10:44:06;;;;;;;1.65;1.10;;;10.80;99.90;;;;;;5095805;28;20020;-76
2022/09/18 10:46:34;;;;;;;3.05;1.23;;;10.80;99.90;;;;;;5094090;28;20107;-76
2022/09/18 10:49:14;;;;;;;2.78;1.60;;;10.80;99.90;;;;;;5080495;28;20102;-75
2022/09/18 10:51:39;;;;;;;2.83;1.38;;;10.80;99.90;;;;;;5095415;28;20024;-76
2022/09/18 10:54:25;;;;;;;2.17;1.23;;;10.90;99.90;;;;;;5093958;28;20093;-76
2022/09/18 10:56:51;;;;;;;3.28;1.40;;;10.90;99.90;;;;;;5093830;28;20020;-76
2022/09/18 10:59:26;;;;;;;2.03;1.45;;;10.90;99.90;;;;;;5093925;28;20038;-76
2022/09/18 11:01:56;;;;;;;1.77;1.40;;;10.90;99.90;;;;;;5093827;28;20024;-76
2022/09/18 11:04:22;;;;;;;2.58;1.80;;;11.10;99.90;;;;;;5091278;28;20393;-76
2022/09/18 11:06:48;;;;;;;2.33;1.10;;;11.00;99.90;;;;;;5093540;28;20024;-76
2022/09/18 11:09:18;;;;;;;2.60;1.20;;;11.00;99.90;;;;;;5094880;28;20016;-75
2022/09/18 11:11:50;;;;;;;2.08;1.13;;;10.90;99.90;;;;;;5094679;28;20028;-76
2022/09/18 11:14:28;;;;;;;2.22;1.05;;;11.10;99.90;;;;;;5094954;28;20536;-76
2022/09/18 11:16:59;;;;;;;3.42;2.15;;;11.00;99.90;;;;;;5094663;28;20080;-76
2022/09/18 11:19:32;;;;;;;2.03;1.23;;;11.10;99.90;;;;;;5094555;28;20035;-75
2022/09/18 11:22:30;;;;;;;3.05;1.30;;;11.10;99.90;;;;;;5094706;28;20111;-76
2022/09/18 11:25:13;;;;;;;1.30;1.02;;;10.90;99.90;;;;;;5082646;28;20099;-76
2022/09/18 11:27:48;;;;;;;2.05;1.25;;;10.90;99.90;;;;;;5094386;28;20073;-76
2022/09/18 11:30:28;;;;;;;3.00;1.20;;;11.00;99.90;;;;;;5094494;28;20091;-76
2022/09/18 11:32:59;;;;;;;1.38;1.27;;;11.00;99.90;;;;;;5081583;28;20039;-76
2022/09/18 11:35:28;;;;;;;2.03;1.30;;;11.00;99.90;;;;;;5094472;28;20042;-76
2022/09/18 11:37:57;;;;;;;1.10;1.00;;;11.10;99.90;;;;;;5094249;28;20032;-75
2022/09/18 11:40:51;;;;;;;2.70;1.50;;;11.10;99.90;;;;;;5094372;28;20028;-76
2022/09/18 11:43:37;;;;;;;1.63;1.00;;;11.00;99.90;;;;;;5091779;28;20070;-76
2022/09/18 11:46:27;;;;;;;1.88;1.00;;;10.90;99.90;;;;;;5073894;28;20016;-76
2022/09/18 11:49:00;;;;;;;3.10;1.10;;;10.90;99.90;;;;;;5092587;28;20030;-77
2022/09/18 11:51:55;;;;;;;2.05;1.20;;;10.90;99.90;;;;;;5094235;28;20087;-76
2022/09/18 11:54:56;;;;;;;1.40;1.25;;;10.90;99.90;;;;;;5084305;28;20036;-76
2022/09/18 11:57:31;;;;;;;1.60;1.00;;;11.00;99.90;;;;;;5080786;28;20016;-76
2022/09/18 12:00:03;;;;;;;2.90;1.10;;;10.90;99.90;;;;;;5094150;28;20048;-76
2022/09/18 12:02:46;;;;;;;1.45;1.20;;;10.90;99.90;;;;;;5093916;28;20028;-76
2022/09/18 12:05:32;;;;;;;1.55;0.85;;;10.80;99.90;;;;;;5093902;28;20039;-76
2022/09/18 12:08:20;;;;;;;1.10;1.00;;;10.60;99.90;;;;;;5093815;28;20385;-76
2022/09/18 12:10:49;;;;;;;1.23;1.00;;;10.40;99.90;;;;;;5093714;28;20062;-76
2022/09/18 12:13:45;;;;;;;1.45;1.10;;;10.40;99.90;;;;;;5093722;28;20362;-76
2022/09/18 12:16:17;;;;;;;1.40;1.13;;;10.40;99.90;;;;;;5093209;28;20047;-76
2022/09/18 12:19:07;;;;;;;1.35;1.00;;;10.40;99.90;;;;;;5090915;28;20304;-76
2022/09/18 12:21:56;;;;;;;1.38;1.00;;;10.50;99.90;;;;;;5092135;28;20631;-75
2022/09/18 12:24:21;;;;;;;2.35;1.38;;;10.50;99.90;;;;;;5054646;28;20070;-76
2022/09/18 12:27:09;;;;;;;1.48;1.30;;;10.40;99.90;;;;;;5093356;28;20052;-75
2022/09/18 12:29:53;;;;;;;1.60;1.05;;;10.50;99.90;;;;;;5078664;28;20032;-76
2022/09/18 12:32:52;;;;;;;2.30;1.38;;;10.60;99.90;;;;;;5093404;28;20032;-76
2022/09/18 12:35:45;;;;;;;2.55;1.52;;;10.50;99.90;;;;;;5093326;28;20081;-75
2022/09/18 12:38:29;;;;;;;3.25;1.63;;;10.40;99.90;;;;;;5091569;28;20116;-75
2022/09/18 12:41:04;;;;;;;2.13;1.63;;;10.50;99.90;;;;;;5091682;28;20024;-75
2022/09/18 12:43:49;;;;;;;1.80;1.70;;;10.50;99.90;;;;;;5092910;28;20217;-75
2022/09/18 12:46:36;;;;;;;4.25;1.80;;;10.40;99.90;;;;;;5091717;28;20157;-75
2022/09/18 12:49:04;;;;;;;4.65;1.70;;;10.60;99.90;;;;;;5091488;28;20110;-75
2022/09/18 12:51:35;;;;;;;3.25;1.52;;;10.50;99.90;;;;;;5091473;28;20032;-74
2022/09/18 12:54:47;;;;;;;3.42;2.00;;;10.50;99.90;;;;;;5091569;28;20020;-75
2022/09/18 12:57:19;;;;;;;3.28;2.28;;;10.40;99.90;;;;;;5079848;28;20027;-74
2022/09/18 12:59:48;;;;;;;3.35;2.05;;;10.40;99.90;;;;;;5092690;28;20024;-75
2022/09/18 13:02:25;;;;;;;3.95;2.53;;;10.50;99.90;;;;;;5092529;28;20028;-75
2022/09/18 13:05:06;;;;;;;4.95;2.47;;;10.50;99.90;;;;;;5087921;28;20020;-74
2022/09/18 13:07:38;;;;;;;4.45;2.25;;;10.50;99.90;;;;;;5091169;28;20077;-75
2022/09/18 13:10:18;;;;;;;3.15;2.60;;;10.50;99.90;;;;;;5092511;28;20027;-75
2022/09/18 13:13:09;;;;;;;3.53;2.20;;;10.50;99.90;;;;;;5092491;28;20107;-76
2022/09/18 13:16:20;;;;;;;2.22;2.00;;;10.50;99.90;;;;;;5092501;28;20024;-75
2022/09/18 13:18:56;;;;;;;3.40;2.45;;;10.50;99.90;;;;;;5032694;28;20041;-75
2022/09/18 13:21:22;;;;;;;2.60;2.20;;;10.60;99.90;;;;;;5091352;28;20019;-75